Lawrence, Kansas
Current Conditions -  °F | °C
As of 12:52 PM on Wednesday 26 Nov 2014 (Local Time) from KLWC Reporting Station
Overcast Overcast  
Wind Chill: 31°   Ceiling: 3500
Heat Index: 41°   Visibility: 10mi
Dew Point: 28°   Wind: 24mph
Humidity: 60%   Direction: 310°NW
Pressure: 30.07"   Gusts: 29mph
Location:  38.97°N, 95.24°W
Report Text: KLWC 261852Z AUTO 31021G25KT 10SM OVC035 05/M02 A3007 RMK AO2 PK WND 32030/1842 SLP186 T00501022
Loading
Personal Weather Stations






























Interactive Weather Map New forecast layout! Learn more

10-Day Weather Forecast

Advertisements
Track Severe Weather on mobile